Tropical Cyclones
[Index]
Main Index Home Page Stock Weather Photos Extreme Storms Discussion Storm News and Storm Chasing Reports Tropical Cyclones / Hurricanes / Typhoons Weather Data and Links Wild Fires / Bushfires Weather Observation Techniques Weather Picture Catalogue Tornado Pictures and Reports Stock Video Footage and DVDs for sale
Season 2013-2014 Tropical Cyclone CHRISTINE Track Map
Season 2013-2014 Summaries: [BoM-AU] [JTWC-AU] [JTWC-SIO] [JTWC-SPAC] [JTWC-SH]
<<- Previous TC | BoM 2013-2014 Season | Next TC ->>

click for intensity scale information  Lat/long Grid: Show Hide

 Date Labels: Show Hide

Bureau of Meteorology Tropical Cyclone Data

Name: CHRISTINE
Number: 972 / 201314_04

25 Dec 2013 14:00 UTC to 01 Jan 2014 06:00 UTC

    date/time    lat    long    hPa   cat  kts
2013-12-25 14   12.0   124.0   1005         20          
2013-12-25 18   12.2   123.6   1004         20          
2013-12-26 00   12.5   123.0   1002         25          
2013-12-26 06   12.5   123.0   1003         30          
2013-12-26 12   12.8   122.7   1003         30          
2013-12-26 16   13.0   122.5   1002                     
2013-12-26 18   13.1   122.5   1002         30          
2013-12-26 21   13.5   122.5   1002                     
2013-12-27 00   14.0   122.2   1002         30          
2013-12-27 06   14.2   122.0    998         30          
2013-12-27 09   14.3   122.0    998                     
2013-12-27 12   14.4   121.8    990    1    35          
2013-12-27 18   14.6   121.7    990    1    35          
2013-12-27 20   14.7   121.7    990    1                
2013-12-28 00   14.9   121.6    992    1    35          
2013-12-28 06   15.3   121.5    990    1    40          
2013-12-28 07   15.5   121.4    990    1                
2013-12-28 12   15.8   120.8    990    1    40          
2013-12-28 13   15.8   120.8    987    1                
2013-12-28 16   15.9   120.6    986    1                
2013-12-28 18   16.1   120.4    986    1    45          
2013-12-28 20   16.4   120.3    986    1                
2013-12-28 21   16.5   120.2    983    2                
2013-12-29 00   16.6   120.2    984    2    50          
2013-12-29 04   17.2   119.7    982    2                
2013-12-29 06   17.3   119.6    982    2    55          
2013-12-29 07   17.4   119.6    982    2                
2013-12-29 08   17.5   119.5    978    2                
2013-12-29 09   17.7   119.4    978    2                
2013-12-29 12   17.8   119.3    976    2    60          
2013-12-29 15   18.0   119.2    968    3    65          
2013-12-29 18   18.5   119.0    970    3    65          
2013-12-29 21   18.7   118.9    969    3                
2013-12-29 22   18.8   118.7    965    3                
2013-12-30 00   18.9   118.6    966    3    70          
2013-12-30 03   19.1   118.4    967    3    70          
2013-12-30 06   19.6   118.2    963    3    75          
2013-12-30 09   19.9   118.0    959    3    80          
2013-12-30 12   20.4   117.7    948    4    90          
2013-12-30 15   20.7   117.4    948    4    90          
2013-12-30 18   21.1   117.1    965    3    70          
2013-12-30 21   21.5   117.0    973    2    60          
2013-12-31 00   22.1   117.0    981    2    50          
2013-12-31 06   23.9   117.5    989    1    40          
2013-12-31 12   25.1   118.8    993    1    30          
2013-12-31 16   25.7   119.7    992    1                
2013-12-31 18   26.1   120.3    992    1    30          
2014-01-01 00   27.5   122.4    998         25          
2014-01-01 06   29.1   124.5    997         25          
Winds are 10-min average.

Tropical cyclone tracks developed by Michael Bath using data from the Bureau of Meteorology and Google Maps.


[Australian Severe Weather index] [Copyright Notice] [Email Contacts] [Search This Site] [Privacy Policy]
Document: tropical_cyclone_christine.htm Updated: 29 June 2017